METAR Data
IDs: Format: Raw Decoded Include TAF

Data at: 0623 UTC 23 Feb 2019

KF46 230615Z AUTO 12003KT 1 1/2SM BR OVC003 09/09 A2985 RMK AO2 T00940094
KF46 230555Z AUTO 00000KT 3SM BR OVC003 09/09 A2986 RMK AO2 T00920092 10092 20088 400920072
KF46 230535Z AUTO 00000KT 4SM BR OVC003 09/09 A2987 RMK AO2 T00910091
KF46 230520Z AUTO 14004KT 1 1/2SM BR OVC003 09/09 A2987 RMK AO2 T00900090
KF46 230455Z AUTO 00000KT 3/4SM BR OVC003 09/09 A2988 RMK AO2 T00900090
KF46 230435Z AUTO 15003KT 3/4SM BR OVC003 09/09 A2989 RMK AO2 T00900090
KF46 230415Z AUTO 00000KT 3SM BR OVC003 09/09 A2990 RMK AO2 T00900090
KF46 230355Z AUTO 00000KT 3SM BR OVC003 09/09 A2991 RMK AO2 T00900090
KF46 230335Z AUTO 00000KT 2 1/2SM BR OVC003 09/09 A2990 RMK AO2 T00900090
KF46 230315Z AUTO 00000KT 2SM BR OVC003 09/09 A2991 RMK AO2 T00900090
KF46 230255Z AUTO 00000KT 2 1/2SM BR OVC003 09/09 A2991 RMK AO2 T00900090
KF46 230235Z AUTO 12003KT 5SM BR OVC003 09/09 A2991 RMK AO2 T00900090
KF46 230215Z AUTO 12003KT 7SM OVC003 09/09 A2991 RMK AO2 T00890089
KF46 230155Z AUTO 00000KT 7SM OVC003 09/09 A2991 RMK AO2 T00890089
KF46 230135Z AUTO 10004KT 7SM OVC003 09/09 A2990 RMK AO2 T00880088
KF46 230115Z AUTO 11003KT 7SM BKN005 BKN008 OVC012 09/09 A2990 RMK AO2 T00890089
KF46 230055Z AUTO 11005KT 7SM SCT005 OVC012 09/09 A2991 RMK AO2 T00880088
KF46 230035Z AUTO 09003KT 7SM BKN005 OVC012 09/09 A2992 RMK AO2 T00900090
KF46 230020Z AUTO 09004KT 7SM OVC005 09/09 A2992 RMK AO2 T00900090
KF46 222355Z AUTO 00000KT 4SM -DZ OVC005 09/09 A2993 RMK AO2 60015 T00880088 10090 20081
KF46 222335Z AUTO 10003KT 5SM DZ OVC005 09/09 A2993 RMK AO2 T00890089
KF46 222315Z AUTO 00000KT 10SM RA OVC005 09/09 A2994 RMK AO2 T00890089
KF46 222255Z AUTO 09004KT 7SM BKN005 OVC014 09/09 A2993 RMK AO2 T00870087
KF46 222235Z AUTO 09007KT 4SM BR BKN005 OVC014 09/09 A2993 RMK AO2 LTG DSNT N T00880088
KF46 222215Z AUTO 09004KT 3SM BR OVC005 09/09 A2993 RMK AO2 T00870087
KF46 222155Z AUTO 09006KT 2SM -RA OVC005 09/09 A2993 RMK AO2 LTG DSNT N P0001 T00860086
KF46 222135Z AUTO 08005KT 1 3/4SM DZ OVC005 09/09 A2994 RMK AO2 LTG DSNT N AND NE P0001 T00860086
KF46 222115Z AUTO 08004KT 2 1/2SM -TSRA OVC005 09/09 A2995 RMK AO2 LTG DSNT N AND NE T00850085
KF46 222055Z AUTO 07008KT 2 1/2SM TSRA OVC003 08/08 A2995 RMK AO2 LTG DSNT SW THRU N P0013 60013 T00830083
KF46 222035Z AUTO 07006KT 7SM OVC003 09/09 A2995 RMK AO2 P0001 T00850085
KF46 222015Z AUTO 07009KT 3SM RA OVC003 08/08 A2994 RMK AO2 LTG DSNT E P0001 T00830083
KF46 221955Z AUTO 08011KT 3SM BR OVC003 08/08 A2994 RMK AO2 T00840084
KF46 221935Z AUTO 07010KT 4SM BR OVC003 09/09 A2996 RMK AO2 LTG DSNT E T00850085
KF46 221915Z AUTO 07012KT 5SM BR OVC003 09/09 A2997 RMK AO2 T00850085
KF46 221855Z AUTO 08009KT 4SM BR OVC003 08/08 A3000 RMK AO2 T00810081
KF46 221835Z AUTO 08008KT 4SM BR OVC003 08/08 A3001 RMK AO2 LTG DSNT SE T00820082
KF46 221815Z AUTO 04009KT 5SM -RA OVC003 08/08 A3002 RMK AO2 LTG DSNT NE AND E T00830083
KF46 221755Z AUTO 06006KT 4SM VCTS BR 08/08 A3003 RMK AO2 LTG DSNT SE T00820082 10082 20072
KF46 221735Z AUTO 05007KT 3SM VCTSRA OVC002 08/08 A3003 RMK AO2 LTG DSNT E P0001 T00800080
KF46 221715Z AUTO 02005KT 3SM -RA OVC002 08/08 A3004 RMK AO2 T00800080
KF46 221655Z AUTO 05005KT 2SM BR OVC002 08/08 A3004 RMK AO2 T00790079
KF46 221635Z AUTO 04005KT 1 1/2SM BR OVC002 08/08 A3005 RMK AO2 T00780078
KF46 221620Z AUTO 04003KT 1 1/4SM BR OVC002 08/08 A3007 RMK AO2 T00780078
KF46 221555Z AUTO 05004KT 3/4SM BR OVC002 08/08 A3006 RMK AO2 LTG DSNT SE T00770077
KF46 221535Z AUTO 07003KT 1/2SM FG OVC002 08/08 A3007 RMK AO2 T00760076
KF46 221515Z AUTO 00000KT 1/2SM FG OVC002 08/08 A3006 RMK AO2 T00760076
KF46 221455Z AUTO 00000KT 1/2SM FG OVC002 08/08 A3005 RMK AO2 T00760076
KF46 221435Z AUTO 04003KT 1/2SM FG OVC002 08/08 A3002 RMK AO2 T00750075
KF46 221415Z AUTO 09005KT 3/4SM BR OVC002 08/08 A3000 RMK AO2 T00750075
KF46 221355Z AUTO 08005KT 1 1/2SM BR OVC002 07/07 A3000 RMK AO2 T00730073
KF46 221335Z AUTO 00000KT 2SM BR OVC002 07/07 A3001 RMK AO2 T00730073
KF46 221315Z AUTO 10010KT 1 3/4SM BR OVC002 07/07 A2997 RMK AO2 T00720072
KF46 221255Z AUTO 11009KT 1 3/4SM BR OVC002 07/07 A2997 RMK AO2 T00730073
KF46 221235Z AUTO 11009KT 3SM BR OVC002 07/07 A2997 RMK AO2 T00730073
KF46 221215Z AUTO 10011G14KT 2SM BR OVC002 07/07 A2997 RMK AO2 T00730073
KF46 221155Z AUTO 10007KT 2SM BR OVC002 07/07 A2999 RMK AO2 70001 T00740074 10080 20074
KF46 221135Z AUTO 10005KT 2 1/2SM BR OVC002 08/08 A2999 RMK AO2 T00750075
KF46 221115Z AUTO 10008KT 3SM BR OVC004 07/07 A3001 RMK AO2 T00740074
KF46 221055Z AUTO 11009KT 2 1/2SM BR OVC004 08/08 A3000 RMK AO2 T00750075
KF46 221035Z AUTO 09005KT 2 1/2SM BR OVC004 08/08 A3000 RMK AO2 T00750075
KF46 221015Z AUTO 10004KT 5SM BR OVC004 08/08 A3001 RMK AO2 T00750075
KF46 220955Z AUTO 00000KT 10SM OVC004 08/08 A3003 RMK AO2 T00750075
KF46 220935Z AUTO 09005KT 10SM OVC004 08/08 A3001 RMK AO2 T00750075
KF46 220915Z AUTO 11006KT 10SM OVC004 08/08 A3000 RMK AO2 T00750075
KF46 220855Z AUTO 11003KT 10SM OVC006 08/08 A3002 RMK AO2 T00750075
KF46 220835Z AUTO 12007KT 10SM OVC006 08/07 A3001 RMK AO2 T00750073
KF46 220815Z AUTO 11006KT 10SM OVC008 08/07 A3002 RMK AO2 LTG DSNT NE T00760071
KF46 220755Z AUTO 11008KT 10SM OVC008 08/07 A3003 RMK AO2 T00760071
KF46 220735Z AUTO 10007KT 10SM OVC008 08/07 A3002 RMK AO2 T00760071
KF46 220715Z AUTO 10005KT 10SM OVC008 08/07 A3003 RMK AO2 T00760070
KF46 220655Z AUTO 10013KT 10SM OVC010 08/07 A2999 RMK AO2 T00760067
KF46 220635Z AUTO 11011KT 10SM OVC010 08/07 A3003 RMK AO2 T00770065
KF46 220615Z AUTO 09004KT 10SM OVC010 08/06 A3005 RMK AO2 T00790063
KF46 220555Z AUTO 00000KT 10SM OVC010 08/06 A3005 RMK AO2 T00800063 10088 20078 401020052
KF46 220535Z AUTO 09009KT 10SM OVC012 08/06 A3002 RMK AO2 LTG DSNT NE T00800062
KF46 220515Z AUTO 09004KT 10SM OVC012 08/06 A3004 RMK AO2 T00800060
KF46 220455Z AUTO 07003KT 10SM OVC012 08/06 A3005 RMK AO2 T00800060
KF46 220430Z AUTO 07003KT 10SM OVC012 08/06 A3004 RMK AO2 T00800061
KF46 220415Z AUTO 10009KT 10SM OVC012 08/06 A3000 RMK AO2 T00810062
KF46 220355Z AUTO 10006KT 10SM OVC012 08/06 A3001 RMK AO2 T00800061
KF46 220335Z AUTO 11009KT 10SM OVC012 08/06 A2999 RMK AO2 T00800061
KF46 220315Z AUTO 11009G17KT 10SM BKN014 OVC027 08/06 A2997 RMK AO2 T00810057
KF46 220255Z AUTO 11009G14KT 10SM BKN016 OVC020 08/06 A3000 RMK AO2 T00820055
KF46 220235Z AUTO 10008KT 10SM SCT016 BKN020 OVC032 08/06 A3000 RMK AO2 T00830055
KF46 220215Z AUTO 10007KT 10SM SCT022 OVC038 08/05 A3000 RMK AO2 T00830054
KF46 220155Z AUTO 10006G14KT 10SM OVC040 08/05 A2999 RMK AO2 T00820051
KF46 220135Z AUTO 10008KT 10SM OVC040 08/05 A2998 RMK AO2 T00830051
KF46 220115Z AUTO 11009KT 10SM OVC040 08/05 A2999 RMK AO2 T00840050
KF46 220055Z AUTO 11011KT 10SM OVC042 08/05 A2997 RMK AO2 T00840048
KF46 220035Z AUTO 11008KT 10SM OVC044 09/05 A2998 RMK AO2 T00850045
KF46 220015Z AUTO 08009KT 10SM OVC046 09/04 A2997 RMK AO2 T00860042
KF46 212355Z AUTO 09007KT 10SM OVC048 09/04 A2997 RMK AO2 T00890040 10102 20076
KF46 212335Z AUTO 09009KT 10SM OVC048 09/04 A2998 RMK AO2 T00900041
KF46 212315Z AUTO 08007KT 10SM OVC050 09/04 A2998 RMK AO2 T00900040
KF46 212255Z AUTO 09009KT 10SM OVC050 09/04 A2998 RMK AO2 T00910038
KF46 212235Z AUTO 09009KT 050V110 10SM OVC050 09/04 A2999 RMK AO2 T00910040
KF46 212215Z AUTO 11014G23KT 10SM OVC050 09/04 A2997 RMK AO2 T00900038
KF46 212155Z AUTO 10014G21KT 10SM OVC050 09/04 A2997 RMK AO2 T00910040
KF46 212135Z AUTO 11015KT 10SM BKN050 10/04 A2996 RMK AO2 T00970042
KF46 212115Z AUTO 10011G16KT 10SM BKN055 10/04 A2996 RMK AO2 T01010042
KF46 212055Z AUTO 09009KT 10SM BKN065 BKN100 BKN120 10/04 A2999 RMK AO2 T01000040
KF46 212035Z AUTO 11016G21KT 10SM -DZ BKN065 BKN075 BKN100 10/05 A2994 RMK AO2 T00950045
KF46 212015Z AUTO 12012G16KT 10SM -RA OVC065 09/04 A3000 RMK AO2 T00910043
KF46 211955Z AUTO 10010G16KT 10SM VCTS OVC065 09/05 A2999 RMK AO2 T00890053
KF46 211935Z AUTO 10008KT 10SM OVC065 09/05 A3004 RMK AO2 LTG DSNT NE T00870050
KF46 211915Z AUTO 11011G20KT 10SM BKN065 09/05 A3002 RMK AO2 T00860047
KF46 211855Z AUTO 11014G20KT 10SM SCT065 SCT080 BKN120 09/05 A3002 RMK AO2 T00860053
KF46 211835Z AUTO 09013KT 10SM SCT031 SCT043 BKN070 08/05 A3003 RMK AO2 LTG DSNT W T00810050